Statendam — PHSG — position and weather

sailwx.info

Track history (hours):
 
Tides and Currents Weather Stations Pressure Air Temp Water Temp Dewpoint Dewpoint Depression Visibility Wind Speed Wind Dir Waves Ship Positions

Statendam

Operator: Holland America Line

Last reported at 2015-Aug-03 09:00 UTC. Time now 2015-Aug-03 23:17 UTC.
Position N 59°42' W 148°48'.

Type: Passenger vessel. MMSI: 244078000.

Wind from 280 at 6 knots

Barometer 1018.0 mb
Air temperature 15.0 ° C
Dewpoint 15.0 ° C
Water temperature 14.0 ° C

Date/timePositionNaut miles runAvg speedWind from/ knotsBaromVisibWave heightAir tempDewpointWater temp
2015-Aug-03 09:00N 59°42' W 148°48'13311.1 280 / 61018.0 15.015.014.0
2015-Aug-02 21:00N 59°18' W 144°30'26911.0 280 / 171019.010.8 15.015.014.0
2015-Aug-01 20:33N 58°20' W 136°03'8 7.6
2015-Aug-01 19:33N 58°19' W 135°49'2 2.3
2015-Aug-01 18:33N 58°21' W 135°52'0 0.5
2015-Aug-01 17:33N 58°21' W 135°51'1 0.5
2015-Aug-01 16:33N 58°20' W 135°51'0 0.4
2015-Aug-01 15:33N 58°20' W 135°51'1 0.8
2015-Aug-01 14:33N 58°20' W 135°50'2 2.0
2015-Aug-01 13:33N 58°19' W 135°47'7 6.8
2015-Aug-01 12:33N 58°16' W 135°35'1211.3
2015-Aug-01 11:32N 58°12' W 135°14'18 7.2
2015-Aug-01 09:00N 58°24' W 134°48'   150 / 101019.010.8 12.012.0 9.0
2015-Jul-28 14:33N 49°30' W 127°19'1616.2
2015-Jul-28 13:33N 49°20' W 126°59'1716.5
2015-Jul-28 12:33N 49°10' W 126°40'1716.9
2015-Jul-28 11:33N 48°59' W 126°20'1717.3
2015-Jul-28 10:33N 48°48' W 125°59'1017.0
2015-Jul-28 10:00N 48°42' W 125°48'715.2 300 / 121025.010.8 15.015.013.0
2015-Jul-28 09:33N 48°38' W 125°40'1515.3
2015-Jul-28 08:33N 48°31' W 125°19'1615.7
2015-Jul-28 07:33N 48°31' W 124°56'1615.6
2015-Jul-28 06:33N 48°27' W 124°33'1615.8
2015-Jul-28 05:33N 48°21' W 124°11'1615.5
2015-Jul-28 04:33N 48°17' W 123°48'1515.1
2015-Jul-28 03:33N 48°13' W 123°26'1110.8
2015-Jul-28 02:33N 48°12' W 123°10'1616.1
2015-Jul-28 01:33N 48°11' W 122°46'1716.9
2015-Jul-28 00:33N 47°57' W 122°32'1615.9
2015-Jul-27 23:33N 47°42' W 122°27'5 4.7
2015-Jul-27 22:33N 47°38' W 122°23'0 0.0
2015-Jul-27 21:34N 47°38' W 122°23'0 0.0
2015-Jul-27 20:34N 47°38' W 122°23'0 0.0
2015-Jul-27 19:33N 47°38' W 122°23'0 0.0
2015-Jul-27 18:33N 47°38' W 122°23'0 0.0
2015-Jul-27 17:33N 47°38' W 122°23'0 0.0
2015-Jul-27 16:34N 47°38' W 122°23'0 0.0
2015-Jul-27 15:33N 47°38' W 122°23'0 0.0
2015-Jul-27 14:33N 47°38' W 122°23'0 0.0
2015-Jul-27 13:33N 47°38' W 122°23'1 1.1
2015-Jul-27 12:33N 47°37' W 122°24'1111.2
2015-Jul-27 11:33N 47°48' W 122°27'1313.3
2015-Jul-27 10:34N 47°60' W 122°37'1513.3
2015-Jul-27 09:28N 48°11' W 122°50'1314.7
2015-Jul-27 08:33N 48°12' W 123°10'1312.3
2015-Jul-27 07:31N 48°12' W 123°30'9 9.4
2015-Jul-27 06:32N 48°21' W 123°25'4 2.0
2015-Jul-27 04:31N 48°25' W 123°23'0 0.0
2015-Jul-27 03:31N 48°25' W 123°23'0 0.0
2015-Jul-27 02:31N 48°25' W 123°23'0 0.0
2015-Jul-27 01:31N 48°25' W 123°23'0 0.0
2015-Jul-27 00:31N 48°25' W 123°23'0 0.0
2015-Jul-26 23:31N 48°25' W 123°23'0 0.0
2015-Jul-26 22:31N 48°25' W 123°23'0 0.0
2015-Jul-26 21:31N 48°25' W 123°23'0 0.0
2015-Jul-26 20:31N 48°25' W 123°23'0 0.0
2015-Jul-26 19:31N 48°25' W 123°23'5 5.3
2015-Jul-26 18:33N 48°20' W 123°24'1514.7
2015-Jul-26 17:33N 48°14' W 123°44'1818.4
2015-Jul-26 16:34N 48°19' W 124°11'915.7
2015-Jul-26 16:00N 48°18' W 124°24'1125.5 280 / 11018.010.8 0.515.015.013.0
2015-Jul-26 15:33N 48°26' W 124°36'1817.9
2015-Jul-26 14:33N 48°29' W 125°02'1817.7
2015-Jul-26 13:33N 48°32' W 125°28'611.1
2015-Jul-26 13:00N 48°36' W 125°36'1226.9 250 / 61017.010.8 1.015.015.013.0
2015-Jul-26 12:34N 48°43' W 125°50'4274.6
2015-Jul-26 12:00N 48°42' W 126°54'3171.7 250 / 61017.010.8 1.015.015.013.0
2015-Jul-26 11:34N 48°54' W 126°11'1817.9
2015-Jul-26 10:34N 49°05' W 126°32'611.2
2015-Jul-26 10:00N 49°06' W 126°42'1330.8 280 / 111017.010.8 1.015.015.013.0
2015-Jul-26 09:34N 49°17' W 126°54'1118.6
2015-Jul-26 09:00N 49°24' W 127°06'1313.2 270 / 71017.010.8 1.015.015.013.0
2015-Jul-26 08:00N 49°30' W 127°24'13218.8 250 / 91017.010.8 2.015.015.013.0
2015-Jul-26 01:00N 51°00' W 129°54'1312.8 280 / 41016.010.8 2.018.118.114.1
2015-Jul-26 00:00N 51°06' W 130°12'2323.4 280 / 41016.010.8 2.018.118.114.1
2015-Jul-25 23:00N 51°24' W 130°36'1919.2 300 / 91016.010.8 2.018.118.114.1
2015-Jul-25 22:00N 51°36' W 131°00'1616.4 300 / 91016.110.8 2.018.118.114.1
2015-Jul-25 21:00N 51°48' W 131°18'9519.0 290 / 101015.010.8 2.017.017.015.0
2015-Jul-25 16:00N 53°00' W 133°00'1414.0 300 / 151013.010.8 1.013.013.013.0
2015-Jul-25 15:00N 53°12' W 133°12'1919.4 290 / 211012.010.8 1.513.013.013.0
2015-Jul-25 14:00N 53°30' W 133°24'9719.3 290 / 211012.010.8 1.513.013.013.0
2015-Jul-25 09:00N 55°00' W 134°24'   310 / 191011.010.8 13.013.013.0
Track history (hours):
 
Tides and Currents Weather Stations Pressure Air Temp Water Temp Dewpoint Dewpoint Depression Visibility Wind Speed Wind Dir Waves Ship Positions

Statendam

Operator: Holland America Line

Last reported at 2015-Aug-03 09:00 UTC. Time now 2015-Aug-03 23:17 UTC.
Position N 59°42' W 148°48'.

Type: Passenger vessel. MMSI: 244078000.

Wind from 280 at 6 knots

Barometer 1018.0 mb
Air temperature 15.0 ° C
Dewpoint 15.0 ° C
Water temperature 14.0 ° C

Date/timePositionNaut miles runAvg speedWind from/ knotsBaromVisibWave heightAir tempDewpointWater temp
2015-Aug-03 09:00N 59°42' W 148°48'13311.1 280 / 61018.0 15.015.014.0
2015-Aug-02 21:00N 59°18' W 144°30'26911.0 280 / 171019.010.8 15.015.014.0
2015-Aug-01 20:33N 58°20' W 136°03'8 7.6
2015-Aug-01 19:33N 58°19' W 135°49'2 2.3
2015-Aug-01 18:33N 58°21' W 135°52'0 0.5
2015-Aug-01 17:33N 58°21' W 135°51'1 0.5
2015-Aug-01 16:33N 58°20' W 135°51'0 0.4
2015-Aug-01 15:33N 58°20' W 135°51'1 0.8
2015-Aug-01 14:33N 58°20' W 135°50'2 2.0
2015-Aug-01 13:33N 58°19' W 135°47'7 6.8
2015-Aug-01 12:33N 58°16' W 135°35'1211.3
2015-Aug-01 11:32N 58°12' W 135°14'18 7.2
2015-Aug-01 09:00N 58°24' W 134°48'   150 / 101019.010.8 12.012.0 9.0
2015-Jul-28 14:33N 49°30' W 127°19'1616.2
2015-Jul-28 13:33N 49°20' W 126°59'1716.5
2015-Jul-28 12:33N 49°10' W 126°40'1716.9
2015-Jul-28 11:33N 48°59' W 126°20'1717.3
2015-Jul-28 10:33N 48°48' W 125°59'1017.0
2015-Jul-28 10:00N 48°42' W 125°48'715.2 300 / 121025.010.8 15.015.013.0
2015-Jul-28 09:33N 48°38' W 125°40'1515.3
2015-Jul-28 08:33N 48°31' W 125°19'1615.7
2015-Jul-28 07:33N 48°31' W 124°56'1615.6
2015-Jul-28 06:33N 48°27' W 124°33'1615.8
2015-Jul-28 05:33N 48°21' W 124°11'1615.5
2015-Jul-28 04:33N 48°17' W 123°48'1515.1
2015-Jul-28 03:33N 48°13' W 123°26'1110.8
2015-Jul-28 02:33N 48°12' W 123°10'1616.1
2015-Jul-28 01:33N 48°11' W 122°46'1716.9
2015-Jul-28 00:33N 47°57' W 122°32'1615.9
2015-Jul-27 23:33N 47°42' W 122°27'5 4.7
2015-Jul-27 22:33N 47°38' W 122°23'0 0.0
2015-Jul-27 21:34N 47°38' W 122°23'0 0.0
2015-Jul-27 20:34N 47°38' W 122°23'0 0.0
2015-Jul-27 19:33N 47°38' W 122°23'0 0.0
2015-Jul-27 18:33N 47°38' W 122°23'0 0.0
2015-Jul-27 17:33N 47°38' W 122°23'0 0.0
2015-Jul-27 16:34N 47°38' W 122°23'0 0.0
2015-Jul-27 15:33N 47°38' W 122°23'0 0.0
2015-Jul-27 14:33N 47°38' W 122°23'0 0.0
2015-Jul-27 13:33N 47°38' W 122°23'1 1.1
2015-Jul-27 12:33N 47°37' W 122°24'1111.2
2015-Jul-27 11:33N 47°48' W 122°27'1313.3
2015-Jul-27 10:34N 47°60' W 122°37'1513.3
2015-Jul-27 09:28N 48°11' W 122°50'1314.7
2015-Jul-27 08:33N 48°12' W 123°10'1312.3
2015-Jul-27 07:31N 48°12' W 123°30'9 9.4
2015-Jul-27 06:32N 48°21' W 123°25'4 2.0
2015-Jul-27 04:31N 48°25' W 123°23'0 0.0
2015-Jul-27 03:31N 48°25' W 123°23'0 0.0
2015-Jul-27 02:31N 48°25' W 123°23'0 0.0
2015-Jul-27 01:31N 48°25' W 123°23'0 0.0
2015-Jul-27 00:31N 48°25' W 123°23'0 0.0
2015-Jul-26 23:31N 48°25' W 123°23'0 0.0
2015-Jul-26 22:31N 48°25' W 123°23'0 0.0
2015-Jul-26 21:31N 48°25' W 123°23'0 0.0
2015-Jul-26 20:31N 48°25' W 123°23'0 0.0
2015-Jul-26 19:31N 48°25' W 123°23'5 5.3
2015-Jul-26 18:33N 48°20' W 123°24'1514.7
2015-Jul-26 17:33N 48°14' W 123°44'1818.4
2015-Jul-26 16:34N 48°19' W 124°11'915.7
2015-Jul-26 16:00N 48°18' W 124°24'1125.5 280 / 11018.010.8 0.515.015.013.0
2015-Jul-26 15:33N 48°26' W 124°36'1817.9
2015-Jul-26 14:33N 48°29' W 125°02'1817.7
2015-Jul-26 13:33N 48°32' W 125°28'611.1
2015-Jul-26 13:00N 48°36' W 125°36'1226.9 250 / 61017.010.8 1.015.015.013.0
2015-Jul-26 12:34N 48°43' W 125°50'4274.6
2015-Jul-26 12:00N 48°42' W 126°54'3171.7 250 / 61017.010.8 1.015.015.013.0
2015-Jul-26 11:34N 48°54' W 126°11'1817.9
2015-Jul-26 10:34N 49°05' W 126°32'611.2
2015-Jul-26 10:00N 49°06' W 126°42'1330.8 280 / 111017.010.8 1.015.015.013.0
2015-Jul-26 09:34N 49°17' W 126°54'1118.6
2015-Jul-26 09:00N 49°24' W 127°06'1313.2 270 / 71017.010.8 1.015.015.013.0
2015-Jul-26 08:00N 49°30' W 127°24'13218.8 250 / 91017.010.8 2.015.015.013.0
2015-Jul-26 01:00N 51°00' W 129°54'1312.8 280 / 41016.010.8 2.018.118.114.1
2015-Jul-26 00:00N 51°06' W 130°12'2323.4 280 / 41016.010.8 2.018.118.114.1
2015-Jul-25 23:00N 51°24' W 130°36'1919.2 300 / 91016.010.8 2.018.118.114.1
2015-Jul-25 22:00N 51°36' W 131°00'1616.4 300 / 91016.110.8 2.018.118.114.1
2015-Jul-25 21:00N 51°48' W 131°18'9519.0 290 / 101015.010.8 2.017.017.015.0
2015-Jul-25 16:00N 53°00' W 133°00'1414.0 300 / 151013.010.8 1.013.013.013.0
2015-Jul-25 15:00N 53°12' W 133°12'1919.4 290 / 211012.010.8 1.513.013.013.0
2015-Jul-25 14:00N 53°30' W 133°24'9719.3 290 / 211012.010.8 1.513.013.013.0
2015-Jul-25 09:00N 55°00' W 134°24'   310 / 191011.010.8 13.013.013.0

Dump ship's entire track history